createdAt,value
2023-06-07T00:00:19.107Z,40.1378
2023-06-07T00:01:20.943Z,40.0570
2023-06-07T00:02:36.869Z,40.1211
2023-06-07T00:03:25.670Z,40.4489
2023-06-07T00:04:26.464Z,40.5474
2023-06-07T00:05:28.321Z,40.3891
2023-06-07T00:06:30.136Z,40.3292
2023-06-07T00:07:31.976Z,40.3156
2023-06-07T00:08:33.840Z,40.3348
2023-06-07T00:09:35.654Z,40.2796
2023-06-07T00:10:37.492Z,40.3442
2023-06-07T00:11:39.316Z,40.5555
2023-06-07T00:12:41.150Z,40.4906
2023-06-07T00:13:43.020Z,40.4134
2023-06-07T00:14:44.849Z,40.3591
2023-06-07T00:15:46.718Z,40.4082
2023-06-07T00:16:48.616Z,40.3312
2023-06-07T00:17:50.487Z,40.3857
2023-06-07T00:18:52.209Z,40.4250
2023-06-07T00:19:54.055Z,40.4385
2023-06-07T00:20:55.933Z,40.4372
2023-06-07T00:21:57.726Z,40.4128
2023-06-07T00:22:59.566Z,40.3813
2023-06-07T00:24:01.412Z,40.4453
2023-06-07T00:25:03.278Z,40.5596
2023-06-07T00:26:05.091Z,40.6068
2023-06-07T00:27:06.939Z,40.5656
2023-06-07T00:28:08.779Z,40.4925
2023-06-07T00:29:10.608Z,40.4588
2023-06-07T00:30:12.458Z,40.3864
2023-06-07T00:31:14.330Z,40.3405
2023-06-07T00:32:16.152Z,40.3093
2023-06-07T00:33:17.970Z,40.4800
2023-06-07T00:34:19.801Z,40.6080
2023-06-07T00:35:21.654Z,40.5218
2023-06-07T00:36:23.545Z,40.5442
2023-06-07T00:37:25.371Z,40.6075
2023-06-07T00:38:27.163Z,40.8373
2023-06-07T00:39:29.002Z,40.8634
2023-06-07T00:40:30.855Z,40.8304
2023-06-07T00:41:32.704Z,40.8879
2023-06-07T00:42:34.535Z,40.8597
2023-06-07T00:43:36.358Z,40.8200
2023-06-07T00:44:38.225Z,40.8909
2023-06-07T00:45:40.031Z,40.9001
2023-06-07T00:46:41.929Z,40.8642
2023-06-07T00:47:43.804Z,40.7803
2023-06-07T00:48:45.671Z,40.6716
2023-06-07T00:49:47.407Z,40.6250
2023-06-07T00:50:49.254Z,40.7072
2023-06-07T00:51:51.174Z,40.9067
2023-06-07T00:52:52.904Z,40.9852
2023-06-07T00:53:54.735Z,40.9757
2023-06-07T00:54:56.600Z,40.8553
2023-06-07T00:55:58.432Z,40.8999
2023-06-07T00:57:00.290Z,40.9673
2023-06-07T00:58:02.097Z,40.8891
2023-06-07T00:59:03.935Z,40.8336
2023-06-07T01:00:06.033Z,40.8959
2023-06-07T01:01:07.639Z,40.7825
2023-06-07T01:02:09.555Z,40.6796
2023-06-07T01:03:11.378Z,40.6413
2023-06-07T01:04:13.135Z,40.7681
2023-06-07T01:05:14.979Z,40.9113
2023-06-07T01:06:16.806Z,41.0000
2023-06-07T01:07:18.711Z,40.8729
2023-06-07T01:08:20.476Z,40.9716
2023-06-07T01:09:22.383Z,41.3930
2023-06-07T01:10:24.173Z,41.4345
2023-06-07T01:11:26.017Z,41.2253
2023-06-07T01:12:27.848Z,41.0960
2023-06-07T01:13:29.682Z,41.0449
2023-06-07T01:14:31.532Z,41.1317
2023-06-07T01:15:33.372Z,41.1114
2023-06-07T01:16:35.252Z,40.9108
2023-06-07T01:17:37.060Z,40.8203
2023-06-07T01:18:38.871Z,40.6500
2023-06-07T01:19:40.722Z,40.6097
2023-06-07T01:20:42.570Z,40.6513
2023-06-07T01:21:44.411Z,40.6813
2023-06-07T01:22:46.271Z,40.5879
2023-06-07T01:23:48.098Z,40.4934
2023-06-07T01:24:49.910Z,40.5160
2023-06-07T01:25:51.748Z,40.4670
2023-06-07T01:26:53.613Z,40.5566
2023-06-07T01:27:55.414Z,40.6342
2023-06-07T01:28:57.242Z,40.5812
2023-06-07T01:29:59.074Z,40.6901
2023-06-07T01:31:00.925Z,40.6123
2023-06-07T01:32:02.779Z,40.6129
2023-06-07T01:33:04.752Z,40.6617
2023-06-07T01:34:06.419Z,40.7245
2023-06-07T01:35:08.256Z,40.6668
2023-06-07T01:36:10.118Z,40.5538
2023-06-07T01:37:11.951Z,40.4910
2023-06-07T01:38:13.855Z,40.4225
2023-06-07T01:39:15.649Z,40.4115
2023-06-07T01:40:17.473Z,40.5092
2023-06-07T01:41:19.300Z,40.5194
2023-06-07T01:42:21.135Z,40.6401
2023-06-07T01:43:22.981Z,40.9764
2023-06-07T01:44:24.820Z,41.1554
2023-06-07T01:45:26.644Z,41.0731
2023-06-07T01:46:28.550Z,40.8725
2023-06-07T01:47:30.302Z,40.8063
2023-06-07T01:48:32.170Z,40.7141
2023-06-07T01:49:33.990Z,40.7054
2023-06-07T01:50:35.826Z,40.6177
2023-06-07T01:51:37.681Z,40.8229
2023-06-07T01:52:39.498Z,41.0486
2023-06-07T01:53:41.364Z,41.0352
2023-06-07T01:54:43.161Z,41.2824
2023-06-07T01:55:45.019Z,41.0889
2023-06-07T01:56:46.875Z,40.9465
2023-06-07T01:57:48.694Z,41.0831
2023-06-07T01:58:50.530Z,41.0129
2023-06-07T01:59:52.357Z,40.8723
2023-06-07T02:00:54.190Z,40.8384
2023-06-07T02:01:56.124Z,40.8221
2023-06-07T02:02:57.900Z,40.7907
2023-06-07T02:03:59.762Z,40.7806
2023-06-07T02:05:01.534Z,40.6853
2023-06-07T02:06:10.956Z,40.6657
2023-06-07T02:07:05.206Z,40.5757
2023-06-07T02:08:07.060Z,40.5380
2023-06-07T02:09:08.961Z,40.5238
2023-06-07T02:10:11.109Z,40.5339
2023-06-07T02:11:12.580Z,40.4629
2023-06-07T02:12:14.405Z,40.5759
2023-06-07T02:13:16.249Z,40.8325
2023-06-07T02:14:18.144Z,40.7198
2023-06-07T02:15:19.940Z,40.8136
2023-06-07T02:16:21.777Z,40.7460
2023-06-07T02:17:23.655Z,40.7535
2023-06-07T02:18:25.494Z,40.6049
2023-06-07T02:19:27.304Z,40.7025
2023-06-07T02:20:29.119Z,40.7640
2023-06-07T02:21:30.982Z,40.9083
2023-06-07T02:22:32.803Z,40.8348
2023-06-07T02:23:34.661Z,40.8231
2023-06-07T02:24:36.562Z,40.6982
2023-06-07T02:25:38.330Z,40.6587
2023-06-07T02:26:40.148Z,40.5702
2023-06-07T02:27:41.978Z,40.6610
2023-06-07T02:28:43.819Z,40.6991
2023-06-07T02:29:45.710Z,40.6667
2023-06-07T02:30:47.512Z,40.8717
2023-06-07T02:31:49.438Z,40.8930
2023-06-07T02:32:51.340Z,40.7547
2023-06-07T02:33:53.013Z,41.0380
2023-06-07T02:34:54.908Z,41.4190
2023-06-07T02:35:56.704Z,41.2462
2023-06-07T02:36:58.544Z,40.9669
2023-06-07T02:38:00.366Z,40.9028
2023-06-07T02:39:02.240Z,40.9295
2023-06-07T02:40:04.286Z,40.7762
2023-06-07T02:41:05.883Z,40.6850
2023-06-07T02:42:07.724Z,40.6603
2023-06-07T02:43:09.577Z,40.5641
2023-06-07T02:44:11.497Z,40.5826
2023-06-07T02:45:13.272Z,40.5690
2023-06-07T02:46:15.097Z,40.4195
2023-06-07T02:47:16.925Z,40.2895
2023-06-07T02:48:18.753Z,40.2420
2023-06-07T02:49:20.606Z,40.2749
2023-06-07T02:50:22.461Z,40.3702
2023-06-07T02:51:24.288Z,40.5728
2023-06-07T02:52:26.110Z,40.7539
2023-06-07T02:53:27.941Z,41.0221
2023-06-07T02:54:29.825Z,41.0345
2023-06-07T02:55:31.642Z,40.8048
2023-06-07T02:56:33.520Z,40.6559
2023-06-07T02:57:35.302Z,40.6367
2023-06-07T02:58:37.132Z,40.5127
2023-06-07T02:59:38.973Z,40.3564
2023-06-07T03:00:40.861Z,40.2346
2023-06-07T03:01:42.662Z,40.1818
2023-06-07T03:02:44.524Z,40.1740
2023-06-07T03:03:46.387Z,40.2144
2023-06-07T03:04:48.155Z,40.1952
2023-06-07T03:05:50.042Z,40.4513
2023-06-07T03:06:51.845Z,40.5108
2023-06-07T03:07:53.705Z,40.4272
2023-06-07T03:08:55.542Z,40.3508
2023-06-07T03:09:57.383Z,40.2613
2023-06-07T03:10:59.209Z,40.3141
2023-06-07T03:12:01.106Z,40.2249
2023-06-07T03:13:02.967Z,40.5043
2023-06-07T03:14:04.782Z,40.5526
2023-06-07T03:15:06.643Z,40.6985
2023-06-07T03:16:08.489Z,40.6809
2023-06-07T03:17:10.573Z,40.5079
2023-06-07T03:18:12.191Z,40.3309
2023-06-07T03:19:13.981Z,40.4381
2023-06-07T03:20:15.811Z,40.7628
2023-06-07T03:21:17.705Z,40.7025
2023-06-07T03:22:19.495Z,40.6377
2023-06-07T03:23:21.314Z,40.4357
2023-06-07T03:24:23.172Z,40.4083
2023-06-07T03:25:25.065Z,40.3447
2023-06-07T03:26:26.919Z,40.2257
2023-06-07T03:27:28.696Z,40.2258
2023-06-07T03:28:30.514Z,40.2463
2023-06-07T03:29:32.366Z,40.3976
2023-06-07T03:30:34.247Z,40.5198
2023-06-07T03:31:36.080Z,40.7376
2023-06-07T03:32:37.907Z,40.7029
2023-06-07T03:33:39.727Z,40.8844
2023-06-07T03:34:41.564Z,40.8423
2023-06-07T03:35:43.391Z,40.7668
2023-06-07T03:36:45.268Z,40.5176
2023-06-07T03:37:47.066Z,40.4387
2023-06-07T03:38:48.902Z,40.5304
2023-06-07T03:39:50.757Z,40.5156
2023-06-07T03:40:52.600Z,40.4535
2023-06-07T03:41:54.596Z,40.4067
2023-06-07T03:42:56.279Z,40.3961
2023-06-07T03:43:58.116Z,40.6585
2023-06-07T03:44:59.938Z,40.7228
2023-06-07T03:46:01.815Z,40.7140
2023-06-07T03:47:03.636Z,40.8340
2023-06-07T03:48:05.513Z,40.7089
2023-06-07T03:49:07.334Z,40.6330
2023-06-07T03:50:09.180Z,40.4935
2023-06-07T03:51:10.986Z,40.4580
2023-06-07T03:52:12.847Z,40.5272
2023-06-07T03:53:14.650Z,40.6025
2023-06-07T03:54:16.485Z,40.6441
2023-06-07T03:55:18.339Z,40.7173
2023-06-07T03:56:20.188Z,40.7683
2023-06-07T03:57:22.050Z,40.7513
2023-06-07T03:58:23.846Z,40.6831
2023-06-07T03:59:25.703Z,40.5842
2023-06-07T04:00:27.558Z,40.5617
2023-06-07T04:01:29.379Z,40.8093
2023-06-07T04:02:31.328Z,40.7054
2023-06-07T04:03:33.123Z,40.7161
2023-06-07T04:04:35.015Z,40.6803
2023-06-07T04:05:36.732Z,40.6520
2023-06-07T04:06:38.584Z,40.5189
2023-06-07T04:07:40.429Z,40.5580
2023-06-07T04:08:42.242Z,40.6806
2023-06-07T04:09:44.085Z,40.7648
2023-06-07T04:10:45.935Z,40.8491
2023-06-07T04:11:47.780Z,40.7141
2023-06-07T04:12:49.773Z,40.7424
2023-06-07T04:13:51.461Z,40.8858
2023-06-07T04:14:53.280Z,41.0662
2023-06-07T04:15:55.129Z,41.0927
2023-06-07T04:16:57.123Z,40.9146
2023-06-07T04:17:58.920Z,40.6967
2023-06-07T04:19:02.270Z,40.6856
2023-06-07T04:20:02.472Z,40.8771
2023-06-07T04:21:04.354Z,40.9162
2023-06-07T04:22:06.176Z,40.8747
2023-06-07T04:23:08.021Z,40.7298
2023-06-07T04:24:09.936Z,40.6573
2023-06-07T04:25:11.699Z,40.7143
2023-06-07T04:26:13.534Z,40.8028
2023-06-07T04:27:15.377Z,41.0433
2023-06-07T04:28:17.262Z,41.1863
2023-06-07T04:29:19.053Z,41.3239
2023-06-07T04:30:20.882Z,41.2327
2023-06-07T04:31:22.736Z,41.1298
2023-06-07T04:32:24.624Z,41.0614
2023-06-07T04:33:26.400Z,41.0737
2023-06-07T04:34:28.233Z,41.0342
2023-06-07T04:35:30.072Z,41.4716
2023-06-07T04:36:31.928Z,41.5721
2023-06-07T04:37:33.757Z,41.5874
2023-06-07T04:38:46.300Z,41.8976
2023-06-07T04:39:39.182Z,41.9701
2023-06-07T04:40:39.741Z,41.7073
2023-06-07T04:41:41.323Z,41.4948
2023-06-07T04:42:42.951Z,41.4169
2023-06-07T04:43:44.837Z,41.4269
2023-06-07T04:44:46.614Z,41.4214
2023-06-07T04:45:48.452Z,41.2841
2023-06-07T04:46:50.290Z,41.3195
2023-06-07T04:47:52.188Z,41.4593
2023-06-07T04:48:54.002Z,41.3377
2023-06-07T04:49:55.800Z,41.3672
2023-06-07T04:50:57.635Z,41.3032
2023-06-07T04:51:59.472Z,41.3226
2023-06-07T04:53:01.320Z,41.2693
2023-06-07T04:54:03.220Z,41.3163
2023-06-07T04:55:04.975Z,41.4471
2023-06-07T04:56:06.827Z,41.3974
2023-06-07T04:57:08.663Z,41.4586
2023-06-07T04:58:10.514Z,41.6497
2023-06-07T04:59:12.348Z,41.5104
2023-06-07T05:00:14.189Z,41.4369
2023-06-07T05:01:16.008Z,41.3682
2023-06-07T05:02:17.835Z,41.5167
2023-06-07T05:03:19.683Z,41.6415
2023-06-07T05:04:21.625Z,41.5337
2023-06-07T05:05:23.440Z,41.4361
2023-06-07T05:06:25.253Z,41.4186
2023-06-07T05:07:27.023Z,41.3689
2023-06-07T05:08:28.863Z,41.3823
2023-06-07T05:09:31.064Z,41.5406
2023-06-07T05:10:32.555Z,41.5307
2023-06-07T05:11:34.405Z,41.4695
2023-06-07T05:12:36.224Z,41.5041
2023-06-07T05:13:38.058Z,41.7945
2023-06-07T05:14:39.905Z,41.7318
2023-06-07T05:15:41.765Z,41.6191
2023-06-07T05:16:44.630Z,41.4689
2023-06-07T05:17:45.447Z,41.4932
2023-06-07T05:18:47.260Z,41.4910
2023-06-07T05:19:49.093Z,41.6383
2023-06-07T05:20:50.922Z,41.5899
2023-06-07T05:21:52.763Z,41.6300
2023-06-07T05:22:54.628Z,41.5936
2023-06-07T05:23:56.451Z,41.5485
2023-06-07T05:24:58.275Z,41.6034
2023-06-07T05:26:00.093Z,41.7628
2023-06-07T05:27:01.944Z,41.8098
2023-06-07T05:28:13.187Z,41.8302
2023-06-07T05:29:08.304Z,41.8511
2023-06-07T05:30:08.896Z,41.7453
2023-06-07T05:31:12.048Z,41.7583
2023-06-07T05:32:11.964Z,41.7469
2023-06-07T05:33:13.539Z,41.7363
2023-06-07T05:34:15.110Z,41.7736
2023-06-07T05:35:16.690Z,41.7488
2023-06-07T05:36:18.451Z,41.7178
2023-06-07T05:37:20.287Z,41.8918
2023-06-07T05:38:22.115Z,41.9863
2023-06-07T05:39:23.946Z,41.9174
2023-06-07T05:40:25.813Z,42.0133
2023-06-07T05:41:27.628Z,42.0147
2023-06-07T05:42:29.453Z,42.0778
2023-06-07T05:43:31.295Z,42.0198
2023-06-07T05:44:33.132Z,41.9869
2023-06-07T05:45:35.013Z,41.9761
2023-06-07T05:46:36.830Z,42.0478
2023-06-07T05:47:38.702Z,42.0179
2023-06-07T05:48:40.476Z,42.1218
2023-06-07T05:49:42.334Z,42.1206
2023-06-07T05:50:44.158Z,42.2048
2023-06-07T05:51:45.991Z,42.2516
2023-06-07T05:52:47.832Z,42.3146
2023-06-07T05:53:49.664Z,42.2772
2023-06-07T05:54:51.494Z,42.3178
2023-06-07T05:55:53.349Z,42.3253
2023-06-07T05:56:55.161Z,42.5017
2023-06-07T05:57:57.040Z,42.5083
2023-06-07T05:58:58.857Z,42.3943
2023-06-07T06:00:00.677Z,42.3799
2023-06-07T06:01:02.556Z,42.4449
2023-06-07T06:02:04.380Z,42.4137
2023-06-07T06:03:06.226Z,42.5478
2023-06-07T06:04:08.048Z,42.6529
2023-06-07T06:05:10.048Z,42.6254
2023-06-07T06:06:11.720Z,42.6373
2023-06-07T06:07:13.552Z,42.5813
2023-06-07T06:08:15.407Z,42.6615
2023-06-07T06:09:17.274Z,42.5924
2023-06-07T06:10:19.080Z,42.7197
2023-06-07T06:11:20.935Z,42.8332
2023-06-07T06:12:22.767Z,42.9412
2023-06-07T06:13:24.607Z,43.1054
2023-06-07T06:14:26.510Z,43.0303
2023-06-07T06:15:28.273Z,42.9842
2023-06-07T06:16:30.180Z,43.0109
2023-06-07T06:17:31.993Z,43.0450
2023-06-07T06:18:33.842Z,43.1173
2023-06-07T06:19:35.640Z,43.4223
2023-06-07T06:20:37.477Z,43.7376
2023-06-07T06:21:39.315Z,43.6604
2023-06-07T06:22:41.159Z,43.5138
2023-06-07T06:23:43.025Z,43.6185
2023-06-07T06:24:44.826Z,43.6115
2023-06-07T06:25:46.652Z,43.5573
2023-06-07T06:26:48.499Z,43.5336
2023-06-07T06:27:50.399Z,43.7519
2023-06-07T06:28:52.182Z,44.0299
2023-06-07T06:29:54.009Z,44.1765
2023-06-07T06:30:55.861Z,44.1552
2023-06-07T06:31:57.685Z,44.0790
2023-06-07T06:32:59.561Z,43.9459
2023-06-07T06:34:01.343Z,43.8366
2023-06-07T06:35:03.174Z,43.8651
2023-06-07T06:36:05.004Z,43.9079
2023-06-07T06:37:06.928Z,44.1045
2023-06-07T06:38:08.840Z,44.3620
2023-06-07T06:39:10.504Z,44.2954
2023-06-07T06:40:12.341Z,44.2322
2023-06-07T06:41:14.190Z,44.1312
2023-06-07T06:42:16.035Z,44.1209
2023-06-07T06:43:17.868Z,44.0828
2023-06-07T06:44:19.687Z,44.0323
2023-06-07T06:45:21.528Z,44.0205
2023-06-07T06:46:23.459Z,44.0085
2023-06-07T06:47:25.266Z,44.1835
2023-06-07T06:48:27.019Z,44.1629
2023-06-07T06:49:28.866Z,44.0682
2023-06-07T06:50:33.347Z,44.0390
2023-06-07T06:51:32.541Z,44.1202
2023-06-07T06:52:34.386Z,44.1454
2023-06-07T06:53:36.233Z,44.1000
2023-06-07T06:54:38.065Z,44.1716
2023-06-07T06:55:39.878Z,44.1833
2023-06-07T06:56:41.734Z,44.1699
2023-06-07T06:57:43.562Z,44.2735
2023-06-07T06:58:45.404Z,44.2170
2023-06-07T06:59:50.067Z,44.2149
2023-06-07T07:00:49.215Z,44.2316
2023-06-07T07:01:50.932Z,44.3308
2023-06-07T07:02:52.976Z,44.3744
2023-06-07T07:03:54.612Z,44.6554
2023-06-07T07:04:56.402Z,44.6385
2023-06-07T07:05:58.253Z,44.7087
2023-06-07T07:07:00.080Z,44.9144
2023-06-07T07:08:01.931Z,44.9769
2023-06-07T07:09:03.743Z,44.8564
2023-06-07T07:10:05.741Z,44.9570
2023-06-07T07:11:07.418Z,44.9605
2023-06-07T07:12:09.259Z,44.9101
2023-06-07T07:13:11.118Z,44.7647
2023-06-07T07:14:12.913Z,44.6642
2023-06-07T07:15:14.786Z,44.6269
2023-06-07T07:16:16.762Z,44.7180
2023-06-07T07:17:18.500Z,44.7959
2023-06-07T07:18:20.346Z,44.7270
2023-06-07T07:19:22.174Z,44.7100
2023-06-07T07:20:24.008Z,44.8450
2023-06-07T07:21:25.863Z,44.7710
2023-06-07T07:22:29.109Z,44.7175
2023-06-07T07:23:29.568Z,44.7198
2023-06-07T07:24:31.361Z,44.8567
2023-06-07T07:25:33.202Z,44.7774
2023-06-07T07:26:35.051Z,44.5646
2023-06-07T07:27:36.907Z,44.7071
2023-06-07T07:28:38.760Z,44.7430
2023-06-07T07:29:40.553Z,44.7451
2023-06-07T07:30:42.393Z,44.7986
2023-06-07T07:31:44.225Z,44.8074
2023-06-07T07:32:46.145Z,44.8347
2023-06-07T07:33:48.182Z,44.9139
2023-06-07T07:34:49.810Z,44.8540
2023-06-07T07:35:51.584Z,44.7551
2023-06-07T07:36:53.409Z,44.7341
2023-06-07T07:37:55.258Z,44.5540
2023-06-07T07:38:57.118Z,44.5052
2023-06-07T07:39:58.941Z,44.5466
2023-06-07T07:41:00.772Z,44.5490
2023-06-07T07:42:03.579Z,44.8209
2023-06-07T07:43:04.474Z,45.0841
2023-06-07T07:44:06.320Z,45.0700
2023-06-07T07:45:08.140Z,44.9545
2023-06-07T07:46:10.014Z,44.8473
2023-06-07T07:47:11.812Z,44.7791
2023-06-07T07:48:13.696Z,44.6510
2023-06-07T07:49:15.567Z,44.5357
2023-06-07T07:50:17.331Z,44.4410
2023-06-07T07:51:19.149Z,44.4273
2023-06-07T07:52:22.649Z,44.4371
2023-06-07T07:53:22.842Z,44.4406
2023-06-07T07:54:24.697Z,44.3885
2023-06-07T07:55:26.518Z,44.2805
2023-06-07T07:56:28.357Z,44.1929
2023-06-07T07:57:30.181Z,44.1376
2023-06-07T07:58:32.040Z,44.0752
2023-06-07T07:59:34.112Z,44.0987
2023-06-07T08:00:35.715Z,44.0740
2023-06-07T08:01:37.572Z,44.0403
2023-06-07T08:02:39.506Z,43.9262
2023-06-07T08:03:41.347Z,43.8933
2023-06-07T08:04:43.227Z,43.8323
2023-06-07T08:05:44.915Z,43.8123
2023-06-07T08:06:46.751Z,43.7272
2023-06-07T08:07:48.585Z,43.7446
2023-06-07T08:08:50.407Z,43.7183
2023-06-07T08:09:52.266Z,43.8387
2023-06-07T08:10:54.105Z,43.7060
2023-06-07T08:11:55.929Z,43.6560
2023-06-07T08:12:57.763Z,43.6236
2023-06-07T08:13:59.604Z,43.6174
2023-06-07T08:15:01.459Z,43.5890
2023-06-07T08:16:03.320Z,43.6627
2023-06-07T08:17:05.119Z,43.6587
2023-06-07T08:18:06.956Z,43.5411
2023-06-07T08:19:08.827Z,43.4494
2023-06-07T08:20:10.647Z,43.3073
2023-06-07T08:21:12.453Z,43.4306
2023-06-07T08:22:14.302Z,43.2562
2023-06-07T08:23:16.142Z,43.1789
2023-06-07T08:24:17.963Z,43.1128
2023-06-07T08:25:19.835Z,43.1789
2023-06-07T08:26:21.635Z,43.1865
2023-06-07T08:27:23.467Z,43.1905
2023-06-07T08:28:25.290Z,43.2426
2023-06-07T08:29:27.125Z,43.2037
2023-06-07T08:30:29.002Z,43.1601
2023-06-07T08:31:30.841Z,43.2003
2023-06-07T08:32:32.749Z,43.2825
2023-06-07T08:33:34.478Z,43.1521
2023-06-07T08:34:36.318Z,43.1634
2023-06-07T08:35:38.153Z,43.1188
2023-06-07T08:36:39.990Z,43.1247
2023-06-07T08:37:41.809Z,43.0925
2023-06-07T08:38:43.661Z,43.1625
2023-06-07T08:39:45.485Z,43.1445
2023-06-07T08:40:47.339Z,43.0907
2023-06-07T08:41:49.157Z,42.9935
2023-06-07T08:42:51.009Z,43.0645
2023-06-07T08:43:52.807Z,43.0011
2023-06-07T08:44:54.653Z,42.9351
2023-06-07T08:45:56.618Z,42.9297
2023-06-07T08:46:58.307Z,42.7624
2023-06-07T08:48:00.240Z,42.7449
2023-06-07T08:49:01.984Z,42.7531
2023-06-07T08:50:04.259Z,42.6975
2023-06-07T08:51:05.671Z,42.5708
2023-06-07T08:53:10.309Z,42.4335
2023-06-07T08:54:11.158Z,42.4372
2023-06-07T08:55:13.197Z,42.3361
2023-06-07T08:56:17.889Z,42.3642
2023-06-07T08:57:16.677Z,42.4066
2023-06-07T08:58:18.492Z,42.4002
2023-06-07T08:59:20.316Z,42.3695
2023-06-07T09:00:22.152Z,42.4107
2023-06-07T09:01:24.100Z,42.3467
2023-06-07T09:02:25.978Z,42.3586
2023-06-07T09:03:27.762Z,42.2442
2023-06-07T09:04:29.541Z,42.1705
2023-06-07T09:05:31.644Z,42.1904
2023-06-07T09:06:33.262Z,42.1226
2023-06-07T09:07:35.040Z,42.0228
2023-06-07T09:08:36.870Z,41.9741
2023-06-07T09:09:38.697Z,41.9333
2023-06-07T09:10:40.541Z,41.9803
2023-06-07T09:11:42.404Z,41.9863
2023-06-07T09:12:44.243Z,41.9804
2023-06-07T09:13:46.077Z,42.0189
2023-06-07T09:14:47.893Z,42.0745
2023-06-07T09:15:49.724Z,42.1744
2023-06-07T09:16:51.772Z,42.2046
2023-06-07T09:17:53.688Z,42.2654
2023-06-07T09:18:55.359Z,42.2529
2023-06-07T09:19:57.088Z,42.1374
2023-06-07T09:20:58.937Z,42.1244
2023-06-07T09:22:00.949Z,42.1945
2023-06-07T09:23:02.612Z,42.1197
2023-06-07T09:24:04.461Z,41.9746
2023-06-07T09:25:06.608Z,42.0140
2023-06-07T09:26:08.120Z,42.0813
2023-06-07T09:27:09.977Z,42.1623
2023-06-07T09:28:11.789Z,42.1756
2023-06-07T09:29:13.623Z,42.1209
2023-06-07T09:30:15.470Z,42.1879
2023-06-07T09:31:17.337Z,42.2049
2023-06-07T09:32:19.187Z,42.2548
2023-06-07T09:33:21.041Z,42.2167
2023-06-07T09:34:22.799Z,42.2375
2023-06-07T09:35:24.649Z,42.2499
2023-06-07T09:36:26.522Z,42.2141
2023-06-07T09:37:28.462Z,42.3157
2023-06-07T09:38:30.155Z,42.3375
2023-06-07T09:39:32.006Z,42.3327
2023-06-07T09:40:33.829Z,42.2425
2023-06-07T09:41:35.654Z,42.3668
2023-06-07T09:42:37.508Z,42.3232
2023-06-07T09:43:39.348Z,42.2409
2023-06-07T09:44:41.173Z,42.2377
2023-06-07T09:45:43.039Z,42.2150
2023-06-07T09:46:44.860Z,42.2356
2023-06-07T09:47:46.694Z,42.4684
2023-06-07T09:48:48.777Z,42.4205
2023-06-07T09:49:50.389Z,42.3251
2023-06-07T09:50:52.203Z,42.4548
2023-06-07T09:51:54.102Z,42.5686
2023-06-07T09:52:55.920Z,42.5449
2023-06-07T09:53:57.752Z,42.4023
2023-06-07T09:54:59.545Z,42.3865
2023-06-07T09:56:01.466Z,42.4522
2023-06-07T09:57:03.221Z,42.5920
2023-06-07T09:58:05.048Z,42.6709
2023-06-07T09:59:06.902Z,42.8214
2023-06-07T10:00:09.128Z,42.8893
2023-06-07T10:01:10.581Z,42.7199
2023-06-07T10:02:12.395Z,42.6251
2023-06-07T10:03:14.368Z,42.6014
2023-06-07T10:04:16.115Z,42.4761
2023-06-07T10:05:17.897Z,42.4102
2023-06-07T10:06:19.733Z,42.4152
2023-06-07T10:07:21.572Z,42.3505
2023-06-07T10:08:23.455Z,42.3107
2023-06-07T10:09:25.268Z,42.4125
2023-06-07T10:10:27.104Z,42.4003
2023-06-07T10:11:28.896Z,42.4257
2023-06-07T10:12:30.758Z,42.2963
2023-06-07T10:13:32.644Z,42.1335
2023-06-07T10:14:34.563Z,42.0593
2023-06-07T10:15:36.254Z,41.9860
2023-06-07T10:16:38.139Z,41.9165
2023-06-07T10:17:39.949Z,41.9235
2023-06-07T10:18:41.783Z,41.9357
2023-06-07T10:19:43.612Z,41.8138
2023-06-07T10:20:45.510Z,41.8326
2023-06-07T10:21:47.330Z,41.7922
2023-06-07T10:22:49.143Z,41.6567
2023-06-07T10:23:51.096Z,41.5647
2023-06-07T10:24:52.867Z,41.4418
2023-06-07T10:25:54.623Z,41.3269
2023-06-07T10:26:56.477Z,41.2278
2023-06-07T10:27:58.302Z,41.2405
2023-06-07T10:29:00.159Z,41.1613
2023-06-07T10:30:02.012Z,41.0812
2023-06-07T10:31:03.816Z,41.0689
2023-06-07T10:32:05.703Z,40.8345
2023-06-07T10:33:07.540Z,40.7193
2023-06-07T10:34:09.390Z,40.6293
2023-06-07T10:35:13.614Z,40.6093
2023-06-07T10:36:13.061Z,40.4870
2023-06-07T10:37:14.908Z,40.3738
2023-06-07T10:38:16.698Z,40.3702
2023-06-07T10:39:18.566Z,40.4266
2023-06-07T10:40:20.406Z,40.2445
2023-06-07T10:41:22.223Z,40.1919
2023-06-07T10:42:24.047Z,40.0331
2023-06-07T10:43:25.879Z,39.9256
2023-06-07T10:44:27.798Z,39.9342
2023-06-07T10:45:29.570Z,40.0611
2023-06-07T10:46:31.425Z,40.1586
2023-06-07T10:47:33.287Z,40.2652
2023-06-07T10:48:35.134Z,40.1608
2023-06-07T10:49:36.973Z,40.2317
2023-06-07T10:50:38.801Z,40.3660
2023-06-07T10:51:40.666Z,40.2698
2023-06-07T10:52:42.461Z,40.1283
2023-06-07T10:53:44.347Z,39.9950
2023-06-07T10:54:46.143Z,39.9696
2023-06-07T10:55:47.986Z,39.7628
2023-06-07T10:56:49.819Z,39.6467
2023-06-07T10:57:51.664Z,39.5865
2023-06-07T10:58:53.488Z,39.5308
2023-06-07T10:59:55.334Z,39.4647
2023-06-07T11:00:57.226Z,39.4284
2023-06-07T11:01:59.076Z,39.3248
2023-06-07T11:03:00.949Z,39.0715
2023-06-07T11:04:02.960Z,38.8004
2023-06-07T11:05:04.893Z,38.6054
2023-06-07T11:06:06.796Z,38.6591
2023-06-07T11:07:08.195Z,38.6152
2023-06-07T11:08:10.039Z,38.7620
2023-06-07T11:09:11.870Z,38.6041
2023-06-07T11:10:13.844Z,38.3044
2023-06-07T11:11:15.575Z,38.2628
2023-06-07T11:12:17.419Z,38.2993
2023-06-07T11:13:19.253Z,38.3094
2023-06-07T11:14:21.087Z,38.1402
2023-06-07T11:15:23.091Z,38.1403
2023-06-07T11:16:24.823Z,38.0525
2023-06-07T11:17:26.660Z,38.0356
2023-06-07T11:18:28.579Z,37.9309
2023-06-07T11:19:30.424Z,38.0115
2023-06-07T11:20:32.205Z,37.8694
2023-06-07T11:21:34.031Z,37.7107
2023-06-07T11:22:35.900Z,37.5543
2023-06-07T11:23:37.771Z,37.6250
2023-06-07T11:24:39.631Z,37.6075
2023-06-07T11:25:41.548Z,37.3495
2023-06-07T11:26:43.238Z,36.9940
2023-06-07T11:27:45.083Z,36.7960
2023-06-07T11:28:46.991Z,36.7186
2023-06-07T11:29:48.741Z,36.6185
2023-06-07T11:30:50.597Z,36.6084
2023-06-07T11:31:52.465Z,36.7084
2023-06-07T11:32:54.301Z,36.5623
2023-06-07T11:33:56.123Z,36.4311
2023-06-07T11:34:58.013Z,36.1754
2023-06-07T11:35:59.786Z,36.0444
2023-06-07T11:37:01.625Z,36.1161
2023-06-07T11:38:03.469Z,36.1355
2023-06-07T11:39:05.311Z,36.1279
2023-06-07T11:40:07.410Z,36.1971
2023-06-07T11:41:08.996Z,36.1867
2023-06-07T11:42:10.849Z,36.1410
2023-06-07T11:43:12.671Z,35.9813
2023-06-07T11:44:14.504Z,35.8799
2023-06-07T11:45:16.350Z,35.8222
2023-06-07T11:46:18.180Z,35.7790
2023-06-07T11:47:20.062Z,35.6887
2023-06-07T11:48:21.945Z,35.8222
2023-06-07T11:49:23.701Z,35.9053
2023-06-07T11:50:25.521Z,35.8328
2023-06-07T11:51:27.590Z,35.7607
2023-06-07T11:52:29.196Z,35.7432
2023-06-07T11:53:31.041Z,35.6748
2023-06-07T11:54:32.889Z,35.6437
2023-06-07T11:55:34.720Z,35.5200
2023-06-07T11:56:36.592Z,35.4885
2023-06-07T11:57:38.427Z,35.4953
2023-06-07T11:58:40.248Z,35.6692
2023-06-07T11:59:42.204Z,35.3714
2023-06-07T12:00:43.949Z,35.0423
2023-06-07T12:01:45.777Z,34.9026
2023-06-07T12:02:47.628Z,34.5560
2023-06-07T12:03:49.534Z,34.4367
2023-06-07T12:04:51.318Z,34.3387
2023-06-07T12:05:53.093Z,34.2516
2023-06-07T12:06:54.946Z,34.1965
2023-06-07T12:07:57.686Z,34.2596
2023-06-07T12:08:58.624Z,34.5592
2023-06-07T12:10:00.453Z,34.2464
2023-06-07T12:11:02.307Z,34.3330
2023-06-07T12:12:04.235Z,34.2796
2023-06-07T12:13:05.975Z,34.0705
2023-06-07T12:14:07.803Z,33.7597
2023-06-07T12:15:09.637Z,33.4313
2023-06-07T12:16:11.515Z,33.2197
2023-06-07T12:17:13.358Z,33.1460
2023-06-07T12:18:15.169Z,33.0370
2023-06-07T12:19:16.994Z,32.9597
2023-06-07T12:20:18.830Z,32.9514
2023-06-07T12:21:20.691Z,33.0441
2023-06-07T12:22:22.594Z,32.9251
2023-06-07T12:23:24.419Z,33.0865
2023-06-07T12:24:26.189Z,33.1447
2023-06-07T12:25:28.058Z,32.7712
2023-06-07T12:26:32.207Z,32.6624
2023-06-07T12:27:31.726Z,32.7290
2023-06-07T12:28:33.553Z,32.6476